Heislerville, New Jersey
Current Conditions -  °F | °C
As of 6:54 PM on Friday 19 Dec 2014 (Local Time) from KMIV Reporting Station
Clear Clear  
Wind Chill: 26°   Ceiling: Unl
Heat Index: 31°   Visibility: 10mi
Dew Point: 23°   Wind: 5mph
Humidity: 72%   Direction: 300°WNW
Pressure: 30.15"   Gusts: NA
Location:  39.22°N, 74.99°W
Report Text: KMIV 192354Z AUTO 30004KT 10SM CLR M01/M05 A3015 RMK AO2 SLP211 T10061050 10056 21011 53020
Loading
Personal Weather Stations






























Interactive Weather Map New forecast layout! Learn more

10-Day Weather Forecast

Advertisements
Track Severe Weather on mobile